Time;durP1;ratioP1;P1;durP2;ratioP2;P2;SDS_P1;SDS_P2;PMS_P1;PMS_P2;Temp;Humidity;BMP_temperature;BMP_pressure;BME280_temperature;BME280_humidity;BME280_pressure;Samples;Min_cycle;Max_cycle;Signal;HPM_P1;HPM_P2
2021/10/09 00:00:28;;;;;;;17.30;15.43;;;7.00;99.90;;;7.63;91.24;98831.78;5199705;28;20222;-59
2021/10/09 00:03:01;;;;;;;17.40;15.40;;;6.90;99.90;;;7.57;91.31;98831.28;5195759;28;20654;-56
2021/10/09 00:05:35;;;;;;;20.07;16.70;;;6.80;99.90;;;7.57;91.11;98830.41;5203343;28;20604;-53
2021/10/09 00:08:13;;;;;;;19.03;16.07;;;6.80;99.90;;;7.52;91.83;98832.53;5202130;28;20297;-61
2021/10/09 00:10:46;;;;;;;18.77;16.60;;;6.80;99.90;;;7.58;91.40;98833.09;5193708;28;20928;-55
2021/10/09 00:13:20;;;;;;;19.20;17.20;;;6.80;99.90;;;7.58;91.81;98832.16;5188061;28;20198;-60
2021/10/09 00:15:53;;;;;;;17.07;15.27;;;6.80;99.90;;;7.54;92.19;98831.03;5198496;28;20202;-60
2021/10/09 00:18:26;;;;;;;20.73;17.10;;;6.90;99.90;;;7.51;91.71;98835.84;5204719;28;20285;-59
2021/10/09 00:20:59;;;;;;;20.17;17.60;;;6.80;99.90;;;7.51;91.71;98835.84;5186854;28;20574;-60
2021/10/09 00:23:33;;;;;;;19.80;17.70;;;6.80;99.90;;;7.54;91.47;98831.03;5198330;28;20326;-55
2021/10/09 00:26:06;;;;;;;21.33;17.47;;;6.80;99.90;;;7.48;91.16;98825.44;5187975;28;20666;-55
2021/10/09 00:28:39;;;;;;;19.97;17.37;;;6.70;99.90;;;7.50;91.88;98823.00;5188782;28;20675;-52
2021/10/09 00:31:12;;;;;;;20.30;18.10;;;6.70;99.90;;;7.46;92.23;98826.94;5186765;28;20224;-60
2021/10/09 00:33:45;;;;;;;20.30;17.40;;;6.80;99.90;;;7.46;91.47;98821.84;5203772;28;20220;-53
2021/10/09 00:36:18;;;;;;;21.97;19.60;;;6.70;99.90;;;7.43;91.50;98829.22;5201801;28;20685;-60
2021/10/09 00:38:54;;;;;;;20.87;18.67;;;6.70;99.90;;;7.39;92.34;98829.75;5205101;28;20212;-61
2021/10/09 00:41:27;;;;;;;18.67;16.67;;;6.70;99.90;;;7.42;91.88;98835.09;5198164;28;20226;-60
2021/10/09 00:44:10;;;;;;;18.90;15.93;;;6.60;99.90;;;7.43;91.13;98827.56;5191428;28;20579;-53
2021/10/09 00:46:45;;;;;;;17.13;15.43;;;6.60;99.90;;;7.33;90.52;98834.31;5191802;28;20285;-59
2021/10/09 00:49:18;;;;;;;19.03;17.03;;;6.50;99.90;;;7.32;90.87;98832.50;5202558;28;20216;-59
2021/10/09 00:51:51;;;;;;;19.13;17.13;;;6.50;99.90;;;7.23;92.05;98832.63;5192740;28;20226;-59
2021/10/09 00:54:27;;;;;;;19.27;17.20;;;6.50;99.90;;;7.17;91.86;98834.63;5195153;28;20206;-60
2021/10/09 00:57:01;;;;;;;18.77;16.80;;;6.50;99.90;;;7.19;91.99;98836.56;5185107;28;20289;-60
2021/10/09 00:59:39;;;;;;;21.03;17.70;;;6.50;99.90;;;7.17;91.24;98827.91;5200890;28;20237;-60
2021/10/09 01:02:12;;;;;;;18.83;16.83;;;6.50;99.90;;;7.15;91.73;98829.44;5189914;28;20591;-59
2021/10/09 01:04:48;;;;;;;17.90;15.67;;;6.40;99.90;;;7.14;91.17;98830.19;5189741;28;20280;-54
2021/10/09 01:07:21;;;;;;;18.23;16.07;;;6.40;99.90;;;7.15;91.42;98829.44;5203605;28;20200;-61
2021/10/09 01:09:55;;;;;;;17.27;15.47;;;6.40;99.90;;;7.11;90.94;98824.84;5191421;28;20198;-53
2021/10/09 01:12:29;;;;;;;18.43;16.53;;;6.30;99.90;;;7.07;90.60;98825.34;5202086;28;20209;-55
2021/10/09 01:15:20;;;;;;;17.63;15.80;;;6.30;99.90;;;7.02;90.66;98821.50;5196179;28;20579;-52
2021/10/09 01:17:53;;;;;;;17.60;15.60;;;6.30;99.90;;;6.97;90.73;98818.56;5204941;28;20196;-55
2021/10/09 01:20:27;;;;;;;20.73;16.13;;;6.30;99.90;;;6.99;91.62;98826.31;5202066;28;20202;-55
2021/10/09 01:23:03;;;;;;;18.60;16.70;;;6.30;99.90;;;6.97;91.37;98816.00;5199985;28;20231;-60
2021/10/09 01:25:36;;;;;;;18.70;16.70;;;6.20;99.90;;;6.98;90.98;98809.28;5192424;28;21423;-60
2021/10/09 01:28:10;;;;;;;17.83;16.00;;;6.30;99.90;;;7.00;91.68;98817.94;5187356;28;20202;-57
2021/10/09 01:30:43;;;;;;;19.17;16.57;;;6.30;99.90;;;6.97;92.08;98817.66;5196531;28;20602;-51
2021/10/09 01:33:16;;;;;;;19.97;17.83;;;6.30;99.90;;;6.97;91.73;98815.13;5194542;28;20281;-60
2021/10/09 01:35:54;;;;;;;20.40;18.23;;;6.20;99.90;;;6.97;92.21;98812.59;5196774;28;20676;-59
2021/10/09 01:38:29;;;;;;;20.60;18.40;;;6.30;99.90;;;6.96;93.15;98815.91;5205665;28;20201;-60
2021/10/09 01:41:04;;;;;;;19.73;16.33;;;6.30;99.90;;;6.93;92.97;98806.34;5201518;28;20227;-58
2021/10/09 01:43:37;;;;;;;19.50;17.40;;;6.30;99.90;;;6.93;92.93;98811.44;5199677;28;20193;-55
2021/10/09 01:46:10;;;;;;;19.17;17.03;;;6.30;99.90;;;6.91;92.50;98807.88;5205021;28;20560;-60
2021/10/09 01:48:43;;;;;;;20.93;17.03;;;6.30;99.90;;;6.93;92.16;98811.44;5226031;22;20243;-58
2021/10/09 01:51:17;;;;;;;19.50;17.60;;;6.20;99.90;;;6.90;92.99;98812.84;5224108;28;20201;-55
2021/10/09 01:53:50;;;;;;;19.07;17.17;;;6.20;99.90;;;6.87;92.95;98812.56;5216738;28;20207;-57
2021/10/09 01:56:24;;;;;;;18.93;16.93;;;6.20;99.90;;;6.88;92.94;98807.59;5217952;28;20206;-59
2021/10/09 01:58:57;;;;;;;21.30;18.23;;;6.20;99.90;;;6.95;92.74;98803.94;5221046;28;20220;-60
2021/10/09 02:01:30;;;;;;;19.80;17.60;;;6.20;99.90;;;6.97;92.51;98812.59;5221692;28;20233;-60
2021/10/09 02:04:04;;;;;;;18.30;16.40;;;6.20;99.90;;;6.93;92.22;98805.47;5228919;28;20236;-56
2021/10/09 02:06:39;;;;;;;20.10;17.80;;;6.20;99.90;;;6.89;92.25;98804.28;5228093;28;20205;-56
2021/10/09 02:09:15;;;;;;;19.03;17.03;;;6.20;99.90;;;6.90;92.16;98801.00;5217732;28;20217;-56
2021/10/09 02:11:51;;;;;;;18.57;16.77;;;6.20;99.90;;;6.88;91.48;98806.72;5225481;28;20223;-59
2021/10/09 02:14:28;;;;;;;18.53;16.53;;;6.10;99.90;;;6.84;92.01;98803.03;5229045;28;20204;-56
2021/10/09 02:25:51;;;;;;;19.03;16.90;;;6.00;99.90;;;6.74;90.69;98797.91;5222790;28;20660;-57
2021/10/09 02:28:25;;;;;;;18.40;16.50;;;6.00;99.90;;;6.72;90.96;98797.78;5242682;28;20303;-59
2021/10/09 02:30:57;;;;;;;20.17;18.07;;;5.90;99.90;;;6.71;90.38;98808.69;5233519;28;20204;-59
2021/10/09 02:33:31;;;;;;;19.33;17.30;;;5.90;99.90;;;6.61;89.13;98806.09;5243768;28;20238;-58
2021/10/09 02:36:06;;;;;;;20.13;17.93;;;5.80;99.90;;;6.53;90.64;98807.97;5243094;28;20201;-58
2021/10/09 02:38:39;;;;;;;19.80;17.70;;;5.80;99.90;;;6.45;90.49;98801.31;5242141;28;20318;-57
2021/10/09 02:41:13;;;;;;;20.93;17.30;;;5.70;99.90;;;6.42;91.09;98810.31;5243482;28;20192;-58
2021/10/09 02:43:46;;;;;;;18.43;16.57;;;5.70;99.90;;;6.39;91.29;98807.50;5231689;28;20205;-58
2021/10/09 02:46:19;;;;;;;17.40;15.57;;;5.60;99.90;;;6.31;91.27;98795.00;5223243;28;20296;-57
2021/10/09 02:48:52;;;;;;;17.37;15.67;;;5.60;99.90;;;6.35;91.24;98797.81;5225785;28;20590;-58
2021/10/09 02:51:26;;;;;;;18.27;16.50;;;5.60;99.90;;;6.30;91.66;98798.31;5232937;28;20200;-60
2021/10/09 02:53:59;;;;;;;18.33;16.07;;;5.60;99.90;;;6.25;91.64;98802.09;5222595;28;20197;-61
2021/10/09 02:56:32;;;;;;;18.97;17.27;;;5.60;99.90;;;6.23;92.16;98797.63;5225252;28;20207;-57
2021/10/09 02:59:05;;;;;;;19.40;17.37;;;5.60;99.90;;;6.21;91.96;98797.50;5242794;28;20224;-55
2021/10/09 03:01:39;;;;;;;20.03;17.80;;;5.50;99.90;;;6.26;92.48;98801.31;5243221;28;20292;-58
2021/10/09 03:04:12;;;;;;;19.47;17.47;;;5.60;99.90;;;6.30;92.67;98798.31;5243358;28;20201;-59
2021/10/09 03:06:46;;;;;;;20.50;18.40;;;5.60;99.90;;;6.30;93.31;98798.31;5231200;28;20207;-55
2021/10/09 03:09:19;;;;;;;19.97;17.90;;;5.60;99.90;;;6.32;93.31;98790.81;5238117;28;20655;-58
2021/10/09 03:11:52;;;;;;;20.17;17.97;;;5.60;99.90;;;6.30;92.62;98798.31;5237248;28;20291;-60
2021/10/09 03:14:26;;;;;;;20.30;18.10;;;5.60;99.90;;;6.27;93.03;98792.97;5242744;28;20193;-58
2021/10/09 03:16:59;;;;;;;23.00;19.10;;;5.70;99.90;;;6.26;93.57;98796.25;5239936;28;20204;-60
2021/10/09 03:19:32;;;;;;;22.87;18.83;;;5.60;99.90;;;6.37;94.10;98792.13;5240343;28;20212;-56
2021/10/09 03:22:07;;;;;;;21.63;19.43;;;5.80;99.90;;;6.42;94.87;98790.91;5239272;28;20295;-55
2021/10/09 03:24:40;;;;;;;21.17;18.30;;;5.80;99.90;;;6.48;94.70;98799.03;5242901;28;20188;-57
2021/10/09 03:27:13;;;;;;;21.77;19.57;;;5.90;99.90;;;6.49;94.92;98799.94;5241518;28;20193;-55
2021/10/09 03:29:46;;;;;;;20.73;18.33;;;5.90;99.90;;;6.49;94.76;98790.66;5239182;28;20201;-56
2021/10/09 03:32:19;;;;;;;19.43;17.37;;;5.80;99.90;;;6.45;94.45;98795.34;5229795;28;20211;-55
2021/10/09 03:34:52;;;;;;;21.30;19.10;;;5.80;99.90;;;6.41;93.50;98795.81;5225863;28;20395;-59
2021/10/09 03:37:27;;;;;;;21.07;17.90;;;5.70;99.90;;;6.36;94.37;98789.47;5220210;28;20204;-60
2021/10/09 03:40:02;;;;;;;19.73;17.47;;;5.70;99.90;;;6.40;94.57;98787.31;5227442;28;20226;-57
2021/10/09 03:42:38;;;;;;;21.73;18.40;;;5.70;99.90;;;6.38;94.16;98790.47;5228805;28;20280;-56
2021/10/09 03:45:15;;;;;;;20.83;18.60;;;5.80;99.90;;;6.46;94.71;98785.31;5228923;28;20752;-55
2021/10/09 03:47:58;;;;;;;22.63;20.33;;;5.90;99.90;;;6.52;94.91;98793.50;5215984;28;20233;-59
2021/10/09 03:53:23;;;;;;;20.63;18.43;;;5.90;99.90;;;6.46;94.94;98781.88;5228721;28;20648;-57
2021/10/09 03:55:56;;;;;;;20.77;18.57;;;5.80;99.90;;;6.49;94.84;98789.78;5225050;28;20295;-58
2021/10/09 03:58:29;;;;;;;20.03;18.03;;;5.80;99.90;;;6.49;94.86;98790.66;5225697;28;20213;-55
2021/10/09 04:01:02;;;;;;;21.07;18.47;;;5.90;99.90;;;6.49;95.19;98799.94;5224003;28;20718;-58
2021/10/09 04:03:36;;;;;;;21.27;18.97;;;5.90;99.90;;;6.51;94.92;98798.44;5220716;28;20202;-56
2021/10/09 04:06:09;;;;;;;19.60;17.60;;;5.90;99.90;;;6.48;94.49;98793.06;5223210;28;20297;-57
2021/10/09 04:08:43;;;;;;;19.57;17.57;;;5.80;99.90;;;6.46;94.33;98789.50;5227997;28;20836;-57
2021/10/09 04:11:16;;;;;;;20.13;18.03;;;5.80;99.90;;;6.50;94.45;98801.72;5228023;28;20211;-61
2021/10/09 04:13:49;;;;;;;19.70;17.30;;;5.80;99.90;;;6.47;94.13;98801.47;5228540;28;20683;-57
2021/10/09 04:16:22;;;;;;;22.60;18.53;;;5.80;99.90;;;6.49;94.79;98805.00;5226445;28;20215;-58
2021/10/09 04:18:55;;;;;;;20.13;17.87;;;5.80;99.90;;;6.49;94.84;98799.94;5222852;28;20274;-59
2021/10/09 04:21:28;;;;;;;19.20;17.20;;;5.80;99.90;;;6.51;94.31;98806.03;5224400;28;20198;-59
2021/10/09 04:24:03;;;;;;;20.57;16.27;;;5.80;99.90;;;6.54;92.67;98799.56;5227597;28;20193;-60
2021/10/09 04:26:36;;;;;;;19.00;16.87;;;5.70;99.90;;;6.46;92.64;98804.75;5210386;28;20197;-61
2021/10/09 04:29:09;;;;;;;18.67;16.63;;;5.70;99.90;;;6.41;92.22;98799.28;5226879;28;20210;-61
2021/10/09 04:31:42;;;;;;;18.20;16.40;;;5.70;99.90;;;6.38;92.89;98806.63;5225959;28;20204;-60
2021/10/09 04:34:15;;;;;;;17.97;16.27;;;5.60;99.90;;;6.37;92.33;98806.47;5227559;28;20190;-59
2021/10/09 04:36:48;;;;;;;17.63;15.77;;;5.50;99.90;;;6.34;92.56;98806.22;5223264;28;20288;-58
2021/10/09 04:39:24;;;;;;;17.83;16.13;;;5.50;99.90;;;6.35;91.42;98800.34;5224776;28;20225;-57
2021/10/09 04:41:57;;;;;;;19.27;16.73;;;5.50;99.90;;;6.30;92.06;98805.94;5226761;28;20671;-58
2021/10/09 04:44:30;;;;;;;18.10;16.30;;;5.50;99.90;;;6.25;91.74;98804.63;5226818;28;20615;-59
2021/10/09 04:47:03;;;;;;;18.80;16.73;;;5.50;99.90;;;6.22;91.93;98809.44;5217605;28;20204;-62
2021/10/09 04:49:36;;;;;;;18.03;16.30;;;5.40;99.90;;;6.17;91.64;98808.13;5220579;28;20217;-58
2021/10/09 04:52:09;;;;;;;18.80;16.90;;;5.40;99.90;;;6.12;92.08;98806.81;5223441;28;20661;-58
2021/10/09 04:54:44;;;;;;;17.90;16.00;;;5.40;99.90;;;6.13;91.94;98802.66;5216464;28;20293;-57
2021/10/09 04:57:17;;;;;;;17.77;15.97;;;5.40;99.90;;;6.10;91.89;98798.19;5214297;28;20196;-58
2021/10/09 04:59:50;;;;;;;18.20;16.20;;;5.40;99.90;;;6.04;91.36;98810.34;5221855;28;20224;-58
2021/10/09 05:02:23;;;;;;;18.43;16.60;;;5.30;99.90;;;6.01;91.71;98802.44;5224186;28;20297;-59
2021/10/09 05:04:56;;;;;;;18.30;16.37;;;5.30;99.90;;;6.03;91.80;98806.00;5219891;28;20245;-59
2021/10/09 05:07:29;;;;;;;17.40;15.70;;;5.30;99.90;;;5.97;91.68;98805.47;5217472;28;20220;-57
2021/10/09 05:10:05;;;;;;;17.87;16.07;;;5.20;99.90;;;5.94;91.81;98805.19;5226270;28;20284;-58
2021/10/09 05:12:38;;;;;;;17.67;15.77;;;5.20;99.90;;;5.93;91.33;98808.44;5215847;28;20795;-60
2021/10/09 05:15:11;;;;;;;17.60;15.70;;;5.20;99.90;;;5.85;91.79;98808.63;5212151;28;20301;-59
2021/10/09 05:17:44;;;;;;;17.47;15.73;;;5.10;99.90;;;5.81;91.04;98810.78;5218399;28;20303;-58
2021/10/09 05:20:18;;;;;;;17.90;16.13;;;5.00;99.90;;;5.82;91.39;98810.91;5224287;28;20209;-58
2021/10/09 05:22:51;;;;;;;18.07;16.30;;;5.00;99.90;;;5.79;91.58;98804.66;5216504;28;20197;-57
2021/10/09 05:25:25;;;;;;;17.40;15.60;;;5.00;99.90;;;5.76;91.49;98805.28;5213312;28;20201;-58
2021/10/09 05:28:02;;;;;;;16.23;14.63;;;5.00;99.90;;;5.76;91.34;98809.47;5214145;28;20656;-58
2021/10/09 05:30:36;;;;;;;17.73;16.00;;;5.00;99.90;;;5.74;91.25;98809.31;5215728;28;20247;-62
2021/10/09 05:33:18;;;;;;;17.93;16.03;;;5.00;99.90;;;5.73;91.46;98814.25;5223895;28;20315;-57
2021/10/09 05:35:51;;;;;;;17.57;15.70;;;5.00;99.90;;;5.77;90.99;98814.66;5207456;28;20190;-56
2021/10/09 05:38:24;;;;;;;19.37;17.00;;;5.00;99.90;;;5.77;91.50;98813.78;5211387;28;20217;-57
2021/10/09 05:40:59;;;;;;;19.90;16.77;;;5.00;99.90;;;5.74;91.94;98811.84;5217470;28;20232;-55
2021/10/09 05:43:32;;;;;;;18.63;16.67;;;5.00;99.90;;;5.71;91.80;98813.22;5213778;28;20200;-56
2021/10/09 05:46:05;;;;;;;19.40;17.50;;;5.00;99.90;;;5.71;92.04;98824.25;5214351;28;20217;-56
2021/10/09 05:48:40;;;;;;;19.73;17.63;;;5.00;99.90;;;5.75;92.53;98822.88;5212254;28;20226;-58
2021/10/09 05:51:16;;;;;;;21.73;19.00;;;5.10;99.90;;;5.81;92.57;98828.53;5215440;28;20280;-59
2021/10/09 05:54:02;;;;;;;19.17;17.37;;;5.10;99.90;;;5.85;93.09;98840.72;5215808;28;20205;-57
2021/10/09 05:56:45;;;;;;;22.30;19.27;;;5.20;99.90;;;5.85;92.95;98846.69;5223676;28;20727;-61
2021/10/09 06:31:26;;;;;;;18.70;16.93;;;6.50;99.90;;;8.05;84.29;98860.72;5221803;28;20204;-56
2021/10/09 06:48:30;;;;;;;19.77;17.97;;;7.60;99.90;;;8.69;80.82;98871.09;5196371;28;20221;-57
2021/10/09 06:59:25;;;;;;;18.83;17.03;;;7.70;99.90;;;8.80;82.21;98877.06;5221663;28;20208;-67
2021/10/09 06:59:45;;;;;;;18.43;16.70;;;8.60;99.90;;;9.71;80.41;98874.84;5217504;28;20204;-55
2021/10/09 07:02:18;;;;;;;17.87;16.07;;;8.90;99.90;;;9.86;80.23;98877.66;5214493;28;20197;-55
2021/10/09 07:04:52;;;;;;;18.93;17.03;;;9.00;99.90;;;9.96;80.36;98877.59;5217815;28;20577;-55
2021/10/09 07:07:25;;;;;;;18.10;16.23;;;9.20;99.90;;;10.27;81.22;98869.69;5226762;28;20228;-55
2021/10/09 07:09:58;;;;;;;17.43;15.60;;;9.50;99.90;;;10.61;80.05;98870.53;5226980;28;20207;-60
2021/10/09 07:12:32;;;;;;;17.38;15.68;;;9.90;99.90;;;10.95;79.35;98873.84;5228013;28;20249;-58
2021/10/09 07:15:06;;;;;;;18.02;16.33;;;10.20;99.90;;;11.23;78.22;98876.72;5227741;28;20202;-57
2021/10/09 07:17:39;;;;;;;18.15;16.40;;;10.40;99.90;;;11.52;76.39;98874.44;5219069;28;20784;-61
2021/10/09 07:20:14;;;;;;;18.70;16.70;;;10.70;99.90;;;11.56;75.34;98872.19;5216950;28;20296;-55
2021/10/09 07:22:48;;;;;;;18.45;16.65;;;10.80;99.90;;;11.73;75.69;98881.94;5223687;28;20203;-59
2021/10/09 07:25:24;;;;;;;18.52;16.77;;;10.90;99.90;;;11.93;75.53;98880.78;5223539;28;20186;-59
2021/10/09 07:27:57;;;;;;;18.90;17.17;;;11.10;99.90;;;12.00;74.59;98882.06;5221021;28;20565;-58
2021/10/09 07:30:31;;;;;;;18.70;16.98;;;11.20;99.90;;;12.24;74.41;98882.81;5223339;28;20195;-59
2021/10/09 07:33:04;;;;;;;17.10;15.43;;;11.50;99.90;;;12.50;73.56;98881.09;5224394;28;20201;-59
2021/10/09 07:35:38;;;;;;;17.35;15.80;;;11.70;99.90;;;12.65;73.22;98876.09;5222448;28;20203;-58
2021/10/09 07:38:14;;;;;;;16.42;14.98;;;11.90;99.90;;;12.87;72.26;98879.25;5218923;28;20319;-57
2021/10/09 07:40:47;;;;;;;18.23;16.45;;;12.20;99.90;;;13.01;72.54;98878.47;5217714;28;20209;-58
2021/10/09 07:43:21;;;;;;;18.75;16.65;;;12.20;99.90;;;13.04;70.59;98888.03;5223537;28;20194;-58
2021/10/09 07:45:55;;;;;;;19.33;17.30;;;12.30;99.90;;;13.18;70.52;98887.25;5212878;28;20292;-57
2021/10/09 07:48:28;;;;;;;18.17;16.23;;;12.40;99.90;;;13.20;70.04;98877.09;5220009;28;20320;-63
2021/10/09 07:51:04;;;;;;;19.88;17.20;;;12.30;99.90;;;13.21;69.37;98879.72;5220034;28;20576;-61
2021/10/09 07:53:40;;;;;;;18.45;16.55;;;12.40;99.90;;;13.34;69.51;98886.56;5219532;28;20247;-63
2021/10/09 07:56:13;;;;;;;19.75;17.58;;;12.40;99.90;;;13.35;68.77;98875.50;5223169;28;20490;-63
2021/10/09 07:58:46;;;;;;;19.45;17.58;;;12.40;99.90;;;13.43;69.21;98878.56;5224649;28;20585;-62
2021/10/09 08:01:19;;;;;;;19.67;17.20;;;12.60;99.90;;;13.41;68.40;98886.16;5216503;28;20224;-62
2021/10/09 08:03:52;;;;;;;21.23;16.98;;;12.70;99.90;;;13.60;69.69;98882.16;5218172;28;20209;-62
2021/10/09 08:06:26;;;;;;;19.80;17.70;;;12.80;99.90;;;13.74;70.26;98881.34;5224428;28;20193;-63
2021/10/09 08:08:59;;;;;;;20.35;18.15;;;13.00;99.90;;;13.90;68.69;98878.88;5215464;28;20292;-64
2021/10/09 08:11:33;;;;;;;19.83;17.83;;;13.30;99.90;;;14.06;68.06;98879.81;5213305;28;20200;-63
2021/10/09 08:14:06;;;;;;;20.92;18.35;;;13.40;99.90;;;14.16;66.58;98882.13;5216571;28;20201;-64
2021/10/09 08:16:39;;;;;;;18.80;17.00;;;13.50;99.90;;;14.20;67.04;98872.13;5223998;28;20202;-64
2021/10/09 08:19:13;;;;;;;19.45;17.55;;;13.40;99.90;;;14.11;67.23;98874.16;5219758;28;20240;-61
2021/10/09 08:21:47;;;;;;;20.27;17.35;;;13.20;99.90;;;14.22;68.64;98872.19;5222211;28;20240;-63
2021/10/09 08:24:28;;;;;;;19.65;17.63;;;13.60;99.90;;;14.36;67.60;98876.47;5225464;28;20202;-64
2021/10/09 08:27:13;;;;;;;20.73;18.52;;;13.70;99.90;;;14.36;67.17;98873.00;5223886;28;20575;-61
2021/10/09 08:35:37;;;;;;;18.65;16.85;;;13.90;99.90;;;14.54;67.27;98878.41;5217518;28;20201;-63
2021/10/09 08:41:03;;;;;;;20.55;16.55;;;14.10;99.90;;;14.85;67.26;98876.78;5225987;28;20586;-63
2021/10/09 08:43:36;;;;;;;18.92;16.90;;;14.40;99.90;;;14.98;64.77;98880.91;5224348;28;20288;-63
2021/10/09 08:46:09;;;;;;;20.30;18.17;;;14.70;99.90;;;15.20;63.63;98879.56;5226447;28;20249;-63
2021/10/09 08:48:46;;;;;;;18.42;16.52;;;14.90;99.90;;;15.25;64.87;98879.00;5225966;28;20227;-62
2021/10/09 08:51:22;;;;;;;18.08;16.23;;;14.80;99.90;;;15.24;63.79;98879.78;5206727;28;20297;-64
2021/10/09 08:54:06;;;;;;;18.98;17.13;;;14.90;99.90;;;15.31;63.35;98881.91;5206671;28;20224;-62
2021/10/09 08:56:41;;;;;;;18.25;16.40;;;14.90;99.90;;;15.18;62.68;98874.28;5213621;28;20564;-62
2021/10/09 08:59:20;;;;;;;20.25;17.63;;;14.80;99.90;;;15.17;63.02;98875.13;5223099;28;20223;-63
2021/10/09 09:02:08;;;;;;;19.02;17.13;;;14.80;99.90;;;15.29;61.91;98887.78;5226495;28;20225;-63
2021/10/09 09:05:04;;;;;;;19.30;17.30;;;14.80;99.90;;;15.14;62.38;98872.38;5227049;28;20201;-63
2021/10/09 09:25:33;;;;;;;20.38;17.70;;;14.50;99.90;;;14.94;63.13;98868.69;5211220;28;20203;-63
2021/10/09 09:31:26;;;;;;;20.15;18.02;;;15.00;99.90;;;15.44;62.88;98867.13;5186143;28;20287;-64
2021/10/09 09:34:14;;;;;;;21.27;19.08;;;15.10;99.90;;;15.44;62.70;98874.84;5215821;28;20213;-63
2021/10/09 09:37:05;;;;;;;20.02;17.92;;;14.90;99.90;;;15.48;62.48;98874.19;5205771;28;20269;-63
2021/10/09 09:39:40;;;;;;;20.73;18.52;;;15.10;99.90;;;15.67;61.29;98876.97;5212416;28;20552;-63
2021/10/09 09:42:25;;;;;;;19.95;17.98;;;15.20;99.90;;;15.77;61.28;98868.94;5224275;28;20220;-64
2021/10/09 09:45:01;;;;;;;18.75;16.50;;;15.30;99.90;;;15.90;61.47;98869.59;5222703;28;20213;-63
2021/10/09 09:47:37;;;;;;;19.50;17.60;;;15.50;99.90;;;15.66;60.81;98869.16;5223497;28;20244;-62
2021/10/09 09:50:12;;;;;;;19.30;17.27;;;15.20;99.90;;;15.75;60.55;98869.69;5206805;28;20288;-64
2021/10/09 09:52:47;;;;;;;19.63;17.73;;;15.30;99.90;;;15.83;60.14;98865.81;5205149;28;20208;-64
2021/10/09 09:55:21;;;;;;;20.13;18.23;;;15.40;99.90;;;15.80;61.62;98872.50;5218828;28;20193;-59
2021/10/09 09:58:17;;;;;;;20.73;18.63;;;15.40;99.90;;;15.83;59.02;98863.25;5215578;28;20225;-64
2021/10/09 10:00:56;;;;;;;20.38;18.40;;;15.50;99.90;;;15.85;60.24;98855.56;5220154;28;20295;-64
2021/10/09 10:03:30;;;;;;;20.23;18.00;;;15.30;99.90;;;15.53;60.17;98872.75;5217792;28;20682;-63
2021/10/09 10:06:05;;;;;;;20.05;18.05;;;15.30;99.90;;;15.67;60.21;98869.22;5217274;28;20228;-63
2021/10/09 10:08:41;;;;;;;20.50;17.92;;;15.20;99.90;;;15.45;59.91;98863.72;5213404;28;20780;-63
2021/10/09 10:11:19;;;;;;;19.10;17.08;;;15.10;99.90;;;15.44;60.99;98872.25;5221631;28;20220;-62
2021/10/09 10:13:53;;;;;;;18.52;16.67;;;15.10;99.90;;;15.36;61.00;98865.81;5223504;28;20201;-64
2021/10/09 10:16:27;;;;;;;19.33;17.25;;;14.90;99.90;;;15.60;59.77;98867.13;5216620;28;20284;-63
2021/10/09 10:19:01;;;;;;;21.02;18.73;;;15.20;99.90;;;15.45;60.18;98866.28;5217608;28;20231;-60
2021/10/09 10:21:49;;;;;;;18.92;17.23;;;15.00;99.90;;;15.46;60.57;98866.41;5216328;28;20201;-59
2021/10/09 10:24:46;;;;;;;18.55;16.40;;;15.10;99.90;;;15.71;61.07;98867.75;5224968;28;20288;-59
2021/10/09 10:27:37;;;;;;;17.95;16.15;;;15.30;99.90;;;15.68;59.56;98864.97;5219777;28;20629;-62
2021/10/09 10:30:29;;;;;;;18.75;16.85;;;15.30;99.90;;;15.73;59.65;98874.72;5209027;28;20288;-63
2021/10/09 10:33:40;;;;;;;18.40;16.45;;;15.30;99.90;;;15.89;58.77;98866.13;5208521;28;20295;-65
2021/10/09 10:36:36;;;;;;;19.67;17.63;;;15.50;99.90;;;15.68;58.00;98864.97;5214052;28;20665;-63
2021/10/09 10:39:10;;;;;;;18.73;16.70;;;15.40;99.90;;;15.47;59.09;98867.28;5218328;28;20305;-63
2021/10/09 10:41:52;;;;;;;21.90;18.13;;;15.10;99.90;;;15.49;59.48;98856.25;5215770;28;20193;-63
2021/10/09 10:44:56;;;;;;;18.33;16.50;;;15.10;99.90;;;15.64;59.06;98866.50;5212420;28;20201;-62
2021/10/09 10:48:03;;;;;;;21.27;18.05;;;15.20;99.90;;;15.74;58.78;98858.47;5215481;28;20684;-63
2021/10/09 10:51:14;;;;;;;20.20;18.13;;;15.40;99.90;;;15.59;58.49;98867.91;5220239;28;20197;-63
2021/10/09 10:54:20;;;;;;;18.80;16.90;;;15.20;99.90;;;15.46;59.59;98868.09;5226191;28;20634;-63
2021/10/09 10:57:19;;;;;;;19.70;17.40;;;15.10;99.90;;;15.53;59.45;98875.31;5219130;28;20216;-62
2021/10/09 10:59:59;;;;;;;20.90;17.15;;;15.10;99.90;;;15.52;59.40;98861.56;5213144;28;20209;-63
2021/10/09 11:02:36;;;;;;;18.63;16.73;;;15.20;99.90;;;15.70;58.23;98865.97;5215671;28;20244;-63
2021/10/09 11:05:13;;;;;;;18.50;16.50;;;15.30;99.90;;;15.60;58.57;98869.72;5216842;28;20247;-62
2021/10/09 11:07:48;;;;;;;20.33;16.92;;;15.20;99.90;;;15.62;58.67;98862.94;5219336;28;20227;-63
2021/10/09 11:10:22;;;;;;;18.73;16.40;;;15.30;99.90;;;15.71;59.18;98867.75;5217610;28;20246;-63
2021/10/09 11:12:55;;;;;;;18.50;16.60;;;15.40;99.90;;;15.94;58.32;98858.66;5220728;28;20228;-63
2021/10/09 11:15:28;;;;;;;18.95;16.95;;;15.60;99.90;;;16.00;57.02;98861.53;5224510;28;20693;-63
2021/10/09 11:18:04;;;;;;;18.10;16.27;;;15.50;99.90;;;15.97;57.41;98856.22;5213507;28;20327;-63
2021/10/09 11:20:41;;;;;;;16.88;15.13;;;15.50;99.90;;;16.07;56.80;98861.03;5220797;28;20202;-63
2021/10/09 11:23:15;;;;;;;18.52;16.63;;;15.60;99.90;;;15.95;57.58;98860.41;5218432;28;20212;-63
2021/10/09 11:25:51;;;;;;;17.95;15.95;;;15.50;99.90;;;15.98;57.65;98863.16;5225593;28;20193;-62
2021/10/09 11:28:29;;;;;;;16.17;14.57;;;15.50;99.90;;;16.10;56.50;98858.59;5222883;28;20221;-63
2021/10/09 11:31:02;;;;;;;17.13;15.52;;;15.60;99.90;;;16.08;57.39;98856.75;5217946;28;20297;-63
2021/10/09 11:33:36;;;;;;;19.08;15.98;;;15.60;99.90;;;15.97;56.25;98861.38;5209171;28;20202;-61
2021/10/09 11:36:09;;;;;;;17.25;15.48;;;15.60;99.90;;;16.04;55.85;98852.25;5220297;28;20267;-62
2021/10/09 11:38:44;;;;;;;18.65;16.70;;;15.60;99.90;;;15.96;55.99;98859.59;5223156;28;20755;-63
2021/10/09 11:41:20;;;;;;;17.38;15.57;;;15.60;99.90;;;15.89;56.33;98850.66;5214494;28;20197;-63
2021/10/09 11:43:59;;;;;;;18.65;16.58;;;15.50;99.90;;;15.84;56.62;98843.50;5223395;28;20726;-62
2021/10/09 11:46:54;;;;;;;17.52;15.75;;;15.40;99.90;;;15.84;56.77;98848.66;5220934;28;20573;-62
2021/10/09 11:55:26;;;;;;;17.13;14.60;;;15.40;99.90;;;15.95;58.02;98848.41;5208018;28;20573;-62
2021/10/09 11:58:04;;;;;;;16.98;15.23;;;15.50;99.90;;;16.11;56.79;98844.94;5220651;28;20241;-62
2021/10/09 12:00:57;;;;;;;17.50;15.65;;;15.60;99.90;;;15.99;56.32;98842.59;5213794;28;20209;-61
2021/10/09 12:03:36;;;;;;;17.60;15.73;;;15.50;99.90;;;16.16;56.64;98847.72;5217582;28;20222;-63
2021/10/09 12:06:10;;;;;;;17.20;15.40;;;15.60;99.90;;;16.20;56.21;98839.34;5222842;28;20292;-62
2021/10/09 12:08:54;;;;;;;19.98;17.98;;;15.60;99.90;;;16.00;57.06;98840.91;5212175;28;20252;-62
2021/10/09 12:11:30;;;;;;;17.25;15.40;;;15.60;99.90;;;16.03;57.24;98838.50;5214513;28;20429;-62
2021/10/09 12:14:05;;;;;;;17.88;15.90;;;15.60;99.90;;;16.11;56.31;98844.94;5210868;28;20657;-63
2021/10/09 12:16:41;;;;;;;18.45;16.70;;;15.60;99.90;;;16.13;56.40;98837.25;5219130;28;20645;-62
2021/10/09 12:19:16;;;;;;;16.83;15.10;;;15.60;99.90;;;16.27;56.46;98825.06;5216541;28;20225;-61
2021/10/09 12:22:01;;;;;;;16.10;14.50;;;15.70;99.90;;;16.32;55.53;98827.06;5225258;28;20208;-61
2021/10/09 12:24:45;;;;;;;16.85;14.52;;;15.80;99.90;;;16.36;55.66;98820.34;5217833;28;20206;-62
2021/10/09 12:27:22;;;;;;;16.27;14.65;;;15.90;99.90;;;16.27;55.33;98820.78;5218258;28;20414;-62
2021/10/09 12:30:03;;;;;;;16.45;14.57;;;15.80;99.90;;;16.49;60.15;98819.28;5214588;28;20262;-61